Time;durP1;ratioP1;P1;durP2;ratioP2;P2;SDS_P1;SDS_P2;PMS_P1;PMS_P2;Temp;Humidity;BMP_temperature;BMP_pressure;BME280_temperature;BME280_humidity;BME280_pressure;Samples;Min_cycle;Max_cycle;Signal;HPM_P1;HPM_P2
2021/05/25 00:02:18;;;;;;;8.23;7.10;;;;;;;10.49;100.00;97747.06;5006412;28;20053;-79
2021/05/25 00:04:47;;;;;;;10.35;7.50;;;;;;;10.44;100.00;97747.13;5022109;28;20199;-82
2021/05/25 00:07:13;;;;;;;10.35;7.28;;;;;;;10.53;100.00;97761.72;5010490;28;20363;-78
2021/05/25 00:09:38;;;;;;;9.70;7.65;;;;;;;10.55;100.00;97748.59;5023061;28;20068;-79
2021/05/25 00:12:04;;;;;;;9.10;7.53;;;;;;;10.58;100.00;97737.06;5022245;28;20461;-84
2021/05/25 00:14:30;;;;;;;8.70;7.68;;;;;;;10.65;100.00;97753.06;5032849;28;20025;-81
2021/05/25 00:16:56;;;;;;;11.50;8.32;;;;;;;10.66;100.00;97755.50;5033515;28;20029;-82
2021/05/25 00:19:21;;;;;;;9.77;8.30;;;;;;;10.66;100.00;97755.50;5034140;28;20093;-80
2021/05/25 00:21:48;;;;;;;9.93;7.95;;;;;;;10.55;100.00;97754.06;5021773;28;20017;-81
2021/05/25 00:24:13;;;;;;;10.13;7.88;;;;;;;10.54;100.00;97754.34;5004972;28;20025;-81
2021/05/25 00:26:39;;;;;;;11.40;7.93;;;;;;;10.59;100.00;97754.25;5014713;28;20025;-80
2021/05/25 00:29:05;;;;;;;9.07;7.63;;;;;;;10.56;100.00;97742.00;5032826;28;20026;-80
2021/05/25 00:31:30;;;;;;;11.30;8.65;;;;;;;10.55;100.00;97748.59;5015432;28;20067;-80
2021/05/25 00:33:56;;;;;;;11.00;8.10;;;;;;;10.60;100.00;97748.50;5034128;28;20029;-80
2021/05/25 00:36:22;;;;;;;14.30;8.57;;;;;;;10.60;100.00;97745.75;5015508;28;20425;-78
2021/05/25 00:38:48;;;;;;;9.70;8.70;;;;;;;10.67;100.00;97751.66;5016370;28;20129;-80
2021/05/25 00:41:14;;;;;;;13.48;10.57;;;;;;;10.63;100.00;97750.63;5033147;28;20488;-79
2021/05/25 00:43:40;;;;;;;13.80;10.27;;;;;;;10.63;100.00;97758.84;5032644;28;20108;-78
2021/05/25 00:46:05;;;;;;;15.63;11.73;;;;;;;10.69;100.00;97760.38;5032354;28;20116;-78
2021/05/25 00:48:30;;;;;;;16.80;12.23;;;;;;;10.69;100.00;97770.50;5032384;28;20037;-79
2021/05/25 00:50:56;;;;;;;16.08;12.32;;;;;;;10.72;100.00;97765.22;5032315;28;20709;-78
2021/05/25 00:53:21;;;;;;;19.23;12.35;;;;;;;10.70;100.00;97747.50;5014695;28;20026;-79
2021/05/25 00:55:47;;;;;;;17.73;14.10;;;;;;;10.71;100.00;97752.66;5029240;28;20055;-78
2021/05/25 00:58:13;;;;;;;18.05;13.30;;;;;;;10.72;100.00;97745.25;5022454;28;20037;-80
2021/05/25 01:00:47;;;;;;;17.80;14.68;;;;;;;10.70;100.00;97733.81;5004426;28;20025;-80
2021/05/25 01:03:18;;;;;;;16.30;13.77;;;;;;;10.70;100.00;97729.16;5014468;28;20485;-79
2021/05/25 01:05:44;;;;;;;16.52;13.75;;;;;;;10.58;100.00;97736.22;5032391;28;20034;-80
2021/05/25 01:08:11;;;;;;;17.63;12.93;;;;;;;10.65;100.00;97731.19;5020357;28;20030;-81
2021/05/25 01:10:39;;;;;;;18.17;14.48;;;;;;;10.66;100.00;97727.31;5022401;28;20013;-80
2021/05/25 01:13:11;;;;;;;20.33;15.07;;;;;;;10.71;100.00;97730.78;5014627;28;20065;-79
2021/05/25 01:15:38;;;;;;;14.68;12.10;;;;;;;10.82;100.00;97725.13;4995144;28;20125;-78
2021/05/25 01:18:05;;;;;;;15.07;12.50;;;;;;;10.78;100.00;97733.13;5012811;28;20033;-79
2021/05/25 01:20:34;;;;;;;17.08;13.27;;;;;;;10.70;100.00;97728.34;5015384;28;20033;-80
2021/05/25 01:23:00;;;;;;;18.45;13.45;;;;;;;10.69;100.00;97727.53;5003819;28;20100;-80
2021/05/25 01:25:26;;;;;;;19.08;13.23;;;;;;;10.77;100.00;97728.78;5020407;28;20387;-79
2021/05/25 01:28:03;;;;;;;16.30;11.43;;;;;;;10.72;100.00;97737.88;5031414;28;20026;-80
2021/05/25 01:30:33;;;;;;;15.55;12.40;;;;;;;10.62;100.00;97737.22;5031497;28;20030;-82
2021/05/25 01:32:59;;;;;;;15.75;12.52;;;;;;;10.70;100.00;97734.63;5022776;28;20112;-80
2021/05/25 01:35:26;;;;;;;19.17;12.73;;;;;;;10.75;100.00;97720.03;5023368;28;20495;-84
2021/05/25 01:37:53;;;;;;;14.27;12.35;;;;;;;10.92;100.00;97724.94;5031721;28;20032;-82
2021/05/25 01:40:20;;;;;;;13.23;10.75;;;;;;;10.70;100.00;97729.16;5031951;28;20025;-83
2021/05/25 01:42:46;;;;;;;15.00;11.73;;;;;;;10.69;100.00;97732.19;5031341;28;20367;-80
2021/05/25 01:45:17;;;;;;;15.63;11.60;;;;;;;10.71;100.00;97717.09;5031279;28;20025;-80
2021/05/25 01:47:42;;;;;;;15.00;12.02;;;;;;;10.63;100.00;97728.75;5031942;28;20029;-79
2021/05/25 01:50:14;;;;;;;24.77;12.40;;;;;;;10.64;100.00;97724.91;5032126;28;20033;-82
2021/05/25 01:52:49;;;;;;;10.70;9.60;;;;;;;10.68;100.00;97731.38;5031181;28;20026;-81
2021/05/25 01:55:34;;;;;;;14.05;10.73;;;;;;;10.72;100.00;97732.41;5013969;28;20041;-83
2021/05/25 01:58:06;;;;;;;13.43;10.38;;;;;;;10.65;100.00;97725.72;5014641;28;20025;-80
2021/05/25 02:00:33;;;;;;;14.63;10.38;;;;;;;10.62;100.00;97732.59;5031999;28;20033;-82
2021/05/25 02:02:59;;;;;;;11.85;10.65;;;;;;;10.54;100.00;97730.56;5013575;28;20504;-82
2021/05/25 02:05:24;;;;;;;13.38;10.43;;;;;;;10.52;100.00;97723.75;5023021;28;20033;-82
2021/05/25 02:07:52;;;;;;;16.65;10.52;;;;;;;10.50;100.00;97726.78;5019065;28;20029;-81
2021/05/25 02:10:41;;;;;;;14.27;10.38;;;;;;;10.51;100.00;97730.34;4993605;28;20049;-82
2021/05/25 02:13:11;;;;;;;14.38;11.07;;;;;;;10.49;100.00;97727.09;5000340;28;20092;-84
2021/05/25 02:15:38;;;;;;;20.17;12.93;;;;;;;10.45;100.00;97724.16;5011199;28;20029;-79
2021/05/25 02:18:06;;;;;;;19.48;12.40;;;;;;;10.40;100.00;97716.03;5011613;28;20064;-79
2021/05/25 02:20:32;;;;;;;14.45;11.23;;;;;;;10.39;100.00;97721.81;5011738;28;20390;-79
2021/05/25 02:22:58;;;;;;;13.80;11.27;;;;;;;10.44;100.00;97718.97;5011910;28;20013;-82
2021/05/25 02:25:24;;;;;;;16.88;11.77;;;;;;;10.44;100.00;97717.06;5012056;28;20056;-83
2021/05/25 02:27:52;;;;;;;16.35;12.05;;;;;;;10.38;100.00;97710.03;5010749;28;20034;-84
2021/05/25 02:30:18;;;;;;;13.93;10.90;;;;;;;10.48;100.00;97718.09;4993763;28;20368;-80
2021/05/25 02:32:44;;;;;;;15.60;11.38;;;;;;;10.50;100.00;97713.13;5011913;28;20022;-83
2021/05/25 02:35:09;;;;;;;17.00;12.15;;;;;;;10.50;100.00;97712.28;5011787;28;20014;-82
2021/05/25 02:37:35;;;;;;;17.40;11.80;;;;;;;10.48;100.00;97715.34;4993785;28;20033;-81
2021/05/25 02:40:01;;;;;;;15.32;13.10;;;;;;;10.48;100.00;97715.34;5018976;28;20022;-82
2021/05/25 02:42:28;;;;;;;16.88;12.23;;;;;;;10.60;100.00;97714.84;5021291;28;20060;-83
2021/05/25 02:44:53;;;;;;;14.63;10.93;;;;;;;10.63;100.00;97712.34;5029351;28;20359;-84
2021/05/25 02:47:19;;;;;;;14.48;10.20;;;;;;;10.84;100.00;97717.44;5031587;28;20028;-83
2021/05/25 02:49:47;;;;;;;14.80;11.52;;;;;;;10.85;100.00;97713.56;5031612;28;20033;-86
2021/05/25 02:52:13;;;;;;;14.05;10.10;;;;;;;10.87;100.00;97725.03;5031754;28;20072;-83
2021/05/25 02:54:39;;;;;;;17.55;11.02;;;;;;;10.83;100.00;97726.75;5007195;28;20386;-84
2021/05/25 02:57:05;;;;;;;18.77;11.68;;;;;;;10.85;100.00;97727.25;4994554;28;20135;-83
2021/05/25 02:59:31;;;;;;;16.30;11.35;;;;;;;10.73;100.00;97739.50;5011200;28;20487;-83
2021/05/25 03:01:57;;;;;;;13.60;9.82;;;;;;;10.64;100.00;97733.13;5011322;28;20386;-82
2021/05/25 03:04:22;;;;;;;15.27;12.30;;;;;;;10.63;100.00;97723.28;5011208;28;20050;-85
2021/05/25 03:06:49;;;;;;;15.20;10.50;;;;;;;10.75;100.00;97747.41;4993923;28;20030;-82
2021/05/25 03:09:14;;;;;;;15.60;11.50;;;;;;;10.67;100.00;97745.38;5011361;28;20116;-85
2021/05/25 03:11:40;;;;;;;16.83;12.32;;;;;;;10.73;100.00;97761.38;5010925;28;20114;-83
2021/05/25 03:14:05;;;;;;;16.67;10.90;;;;;;;10.69;100.00;97749.41;4992694;28;20038;-81
2021/05/25 03:16:31;;;;;;;18.58;13.13;;;;;;;10.68;100.00;97766.16;5011248;28;20026;-83
2021/05/25 03:18:56;;;;;;;18.95;13.90;;;;;;;10.67;100.00;97773.53;5014646;28;20752;-85
2021/05/25 03:21:22;;;;;;;23.02;14.90;;;;;;;10.65;100.00;97764.00;5024774;28;20512;-81
2021/05/25 03:23:47;;;;;;;25.20;15.25;;;;;;;10.55;100.00;97759.53;5022048;28;20089;-82
2021/05/25 03:26:13;;;;;;;27.45;15.93;;;;;;;10.49;100.00;97760.72;5014452;28;20475;-83
2021/05/25 03:28:39;;;;;;;24.92;16.52;;;;;;;10.50;100.00;97756.88;5014681;28;20022;-85
2021/05/25 03:31:05;;;;;;;25.08;15.70;;;;;;;10.63;100.00;97760.75;5015532;28;20105;-83
2021/05/25 03:33:30;;;;;;;22.38;16.60;;;;;;;10.59;100.00;97749.59;5015911;28;20044;-84
2021/05/25 03:35:56;;;;;;;25.55;17.55;;;;;;;10.60;100.00;97761.34;5015694;28;20038;-85
2021/05/25 03:38:21;;;;;;;25.58;17.40;;;;;;;10.64;100.00;97774.13;5016132;28;20060;-83
2021/05/25 03:40:47;;;;;;;22.60;15.38;;;;;;;10.60;100.00;97772.28;5016633;28;20105;-84
2021/05/25 03:43:12;;;;;;;23.38;15.50;;;;;;;10.56;100.00;97774.81;4999204;28;20172;-82
2021/05/25 03:45:38;;;;;;;23.35;16.50;;;;;;;10.52;100.00;97773.81;5016003;28;20037;-82
2021/05/25 03:48:04;;;;;;;24.17;16.73;;;;;;;10.59;100.00;97776.13;5019776;28;20034;-80
2021/05/25 03:50:29;;;;;;;24.70;15.85;;;;;;;10.67;100.00;97786.41;5002173;28;20016;-81
2021/05/25 03:52:56;;;;;;;25.25;17.13;;;;;;;10.68;100.00;97796.25;5005048;28;20033;-81
2021/05/25 04:00:38;;;;;;;24.65;16.85;;;;;;;10.75;100.00;97792.00;5019187;28;20125;-80
2021/05/25 04:03:03;;;;;;;23.95;16.42;;;;;;;10.77;100.00;97789.75;5015936;28;20119;-82
2021/05/25 04:05:29;;;;;;;24.15;15.68;;;;;;;10.91;100.00;97799.91;5009810;28;20037;-80
2021/05/25 04:07:54;;;;;;;21.58;14.35;;;;;;;10.97;100.00;97806.91;5024898;28;20037;-82
2021/05/25 04:10:20;;;;;;;26.60;16.52;;;;;;;10.82;100.00;97796.25;5018882;28;20036;-83
2021/05/25 04:12:45;;;;;;;22.70;15.75;;;;;;;10.85;100.00;97806.59;5013493;28;20030;-82
2021/05/25 04:15:11;;;;;;;24.73;15.70;;;;;;;10.90;100.00;97812.78;5014053;28;20026;-79
2021/05/25 04:17:37;;;;;;;23.52;16.70;;;;;;;10.90;100.00;97814.72;5013391;28;20391;-81
2021/05/25 04:20:04;;;;;;;27.52;16.70;;;;;;;10.92;100.00;97821.53;4996049;28;20022;-80
2021/05/25 04:22:29;;;;;;;24.60;15.65;;;;;;;10.92;100.00;97817.97;5013382;28;20084;-84
2021/05/25 04:24:55;;;;;;;25.92;16.42;;;;;;;10.90;100.00;97812.78;5013066;28;20030;-80
2021/05/25 04:27:20;;;;;;;25.30;16.95;;;;;;;10.83;100.00;97803.34;4995340;28;20057;-84
2021/05/25 04:29:46;;;;;;;25.13;18.17;;;;;;;10.86;100.00;97808.22;5014005;28;20546;-80
2021/05/25 04:32:11;;;;;;;37.72;23.85;;;;;;;10.82;100.00;97810.75;5020101;28;20077;-83
2021/05/25 04:34:36;;;;;;;56.08;33.47;;;;;;;10.85;100.00;97815.63;5027053;28;20393;-77
2021/05/25 04:37:02;;;;;;;32.50;20.55;;;;;;;10.82;100.00;97818.97;5001853;28;20116;-78
2021/05/25 04:39:27;;;;;;;26.00;18.10;;;;;;;10.82;100.00;97820.88;5020286;28;20017;-77
2021/05/25 04:41:52;;;;;;;31.27;20.48;;;;;;;10.93;100.00;97822.34;5021967;28;20026;-78
2021/05/25 04:44:18;;;;;;;26.65;19.00;;;;;;;10.97;100.00;97820.59;5020660;28;20006;-79
2021/05/25 04:46:43;;;;;;;27.20;16.38;;;;;;;10.87;100.00;97824.34;5022269;28;20029;-79
2021/05/25 04:49:09;;;;;;;23.33;16.38;;;;;;;10.86;100.00;97822.72;5004451;28;20479;-78
2021/05/25 04:51:34;;;;;;;22.15;16.20;;;;;;;11.03;100.00;97827.59;5020412;28;20034;-78
2021/05/25 04:53:59;;;;;;;25.15;16.98;;;;;;;10.90;100.00;97825.69;5022257;28;20024;-79
2021/05/25 04:56:25;;;;;;;26.23;16.67;;;;;;;10.84;100.00;97829.63;5020935;28;20045;-79
2021/05/25 04:58:50;;;;;;;20.50;16.48;;;;;;;10.97;100.00;97837.03;5021035;28;20060;-80
2021/05/25 05:01:16;;;;;;;21.38;16.08;;;;;;;11.02;100.00;97842.44;5019818;28;20068;-77
2021/05/25 05:03:41;;;;;;;23.45;17.23;;;;;;;11.22;100.00;97851.06;5021987;28;20041;-76
2021/05/25 05:06:06;;;;;;;19.30;14.63;;;;;;;11.27;100.00;97851.00;5021696;28;20113;-78
2021/05/25 05:08:32;;;;;;;22.23;15.95;;;;;;;11.25;100.00;97839.50;5021062;28;20021;-77
2021/05/25 05:10:58;;;;;;;21.35;15.48;;;;;;;11.43;100.00;97845.22;5022962;28;20045;-77
2021/05/25 05:13:24;;;;;;;20.25;15.50;;;;;;;11.48;100.00;97847.84;5023852;28;20080;-77
2021/05/25 05:15:52;;;;;;;19.13;14.95;;;;;;;11.52;100.00;97848.88;4998426;28;20052;-81
2021/05/25 05:18:18;;;;;;;20.77;15.48;;;;;;;11.47;100.00;97855.25;5001717;28;20053;-79
2021/05/25 05:20:43;;;;;;;21.33;15.98;;;;;;;11.31;100.00;97864.88;5017409;28;20057;-79
2021/05/25 05:23:09;;;;;;;23.77;15.35;;;;;;;11.40;100.00;97863.09;5020828;28;20435;-80
2021/05/25 05:25:35;;;;;;;21.73;16.55;;;;;;;11.40;100.00;97867.75;5022503;28;20030;-79
2021/05/25 05:28:00;;;;;;;20.25;15.20;;;;;;;11.39;100.00;97864.19;5020046;28;20029;-79
2021/05/25 05:30:25;;;;;;;22.27;16.17;;;;;;;11.41;100.00;97867.44;5013064;28;20036;-77
2021/05/25 05:32:52;;;;;;;23.75;17.25;;;;;;;11.55;100.00;97868.25;5003253;28;20034;-77
2021/05/25 05:35:17;;;;;;;20.30;16.10;;;;;;;11.48;100.00;97884.28;4992552;28;20042;-82
2021/05/25 05:37:42;;;;;;;25.23;16.58;;;;;;;11.41;100.00;97872.09;5021210;28;20497;-76
2021/05/25 05:40:08;;;;;;;24.33;16.45;;;;;;;11.48;100.00;97881.53;5027855;28;20032;-76
2021/05/25 05:42:34;;;;;;;24.80;15.65;;;;;;;11.77;100.00;97876.63;5012264;28;20031;-76
2021/05/25 05:44:59;;;;;;;22.70;15.13;;;;;;;11.99;100.00;97878.63;5024817;28;20029;-76
2021/05/25 05:47:25;;;;;;;20.88;16.15;;;;;;;12.08;100.00;97889.69;4998788;28;20032;-78
2021/05/25 05:49:50;;;;;;;28.02;17.48;;;;;;;11.96;100.00;97889.41;5017835;28;20026;-77
2021/05/25 05:52:16;;;;;;;21.20;15.23;;;;;;;11.86;100.00;97897.81;5010684;28;20557;-77
2021/05/25 05:54:41;;;;;;;19.65;15.88;;;;;;;12.03;100.00;97898.81;5010561;28;20445;-80
2021/05/25 05:57:07;;;;;;;20.58;15.00;;;;;;;12.19;100.00;97907.53;5010852;28;20093;-75
2021/05/25 05:59:33;;;;;;;19.52;14.82;;;;;;;12.28;100.00;97905.69;5010590;28;20034;-75
2021/05/25 06:02:10;;;;;;;23.30;15.55;;;;;;;12.11;100.00;97913.75;5128505;27;20132;-76
2021/05/25 06:04:35;;;;;;;21.30;16.08;;;;;;;11.98;100.00;97915.38;5108175;28;20036;-77
2021/05/25 06:07:00;;;;;;;18.60;15.35;;;;;;;11.97;100.00;97915.66;5090392;28;20449;-79
2021/05/25 06:09:26;;;;;;;22.80;17.00;;;;;;;11.78;100.00;97908.38;5090401;28;20019;-76
2021/05/25 06:11:52;;;;;;;22.98;15.77;;;;;;;11.98;100.00;97911.81;5090250;28;20023;-79
2021/05/25 06:14:18;;;;;;;27.20;17.27;;;;;;;12.07;100.00;97910.00;5090006;28;20016;-79
2021/05/25 06:16:43;;;;;;;27.67;19.63;;;;;;;12.07;100.00;97915.47;5107717;28;20035;-77
2021/05/25 06:19:09;;;;;;;22.75;17.65;;;;;;;12.03;100.00;97906.25;5088350;28;20035;-76
2021/05/25 06:21:35;;;;;;;27.88;20.33;;;;;;;12.22;100.00;97912.41;5096885;28;20028;-79
2021/05/25 06:24:00;;;;;;;28.70;21.25;;;;;;;12.09;100.00;97910.50;5096129;28;20042;-75
2021/05/25 06:26:25;;;;;;;29.85;21.77;;;;;;;12.12;100.00;97913.44;5088706;28;20097;-76
2021/05/25 06:28:51;;;;;;;29.45;21.15;;;;;;;12.38;100.00;97927.41;5089399;28;20034;-77
2021/05/25 06:31:16;;;;;;;27.95;21.67;;;;;;;12.46;100.00;97923.97;5107722;28;20112;-76
2021/05/25 06:33:42;;;;;;;24.90;19.40;;;;;;;12.35;100.00;97928.03;5107943;28;20024;-76
2021/05/25 06:36:07;;;;;;;26.48;18.77;;;;;;;12.69;99.38;97933.84;5108198;28;20024;-77
2021/05/25 06:38:33;;;;;;;30.00;21.23;;;;;;;12.69;100.00;97927.53;5091203;28;20027;-78
2021/05/25 06:40:58;;;;;;;30.23;19.95;;;;;;;13.15;97.67;97935.56;5088737;28;20069;-76
2021/05/25 06:43:24;;;;;;;23.58;16.73;;;;;;;13.19;96.48;97931.84;5106831;28;20069;-83
2021/05/25 06:45:49;;;;;;;22.70;17.35;;;;;;;13.51;93.90;97928.03;5088711;28;20024;-77
2021/05/25 06:48:14;;;;;;;20.38;15.18;;;;;;;13.68;93.48;97930.88;5087767;28;20469;-75
2021/05/25 06:50:40;;;;;;;19.20;15.75;;;;;;;13.80;91.33;97925.59;5087544;28;20510;-78
2021/05/25 06:53:05;;;;;;;22.42;16.48;;;;;;;13.79;91.77;97929.47;5088029;28;20115;-75
2021/05/25 06:55:31;;;;;;;22.42;16.08;;;;;;;13.99;91.20;97924.53;5078061;28;20479;-75
2021/05/25 06:57:57;;;;;;;23.67;16.08;;;;;;;13.99;91.26;97933.59;5093838;28;20025;-77
2021/05/25 07:00:23;;;;;;;18.60;14.77;;;;;;;13.94;92.08;97939.22;5086851;28;20510;-75
2021/05/25 07:02:49;;;;;;;20.45;15.38;;;;;;;13.74;92.16;97940.59;5070694;28;20024;-74
2021/05/25 07:05:14;;;;;;;18.55;14.60;;;;;;;13.82;92.72;97931.56;5078637;28;20024;-75
2021/05/25 07:07:43;;;;;;;20.05;15.45;;;;;;;13.80;92.87;97935.78;5073410;28;20020;-74
2021/05/25 07:10:08;;;;;;;19.58;14.02;;;;;;;14.21;91.66;97936.25;5057247;28;20035;-74
2021/05/25 07:12:34;;;;;;;20.35;14.60;;;;;;;14.61;90.83;97938.97;5053293;28;20062;-75
2021/05/25 07:14:59;;;;;;;19.75;13.32;;;;;;;15.15;87.43;97937.53;5071725;28;20036;-75
2021/05/25 07:17:26;;;;;;;19.60;14.88;;;;;;;15.25;86.40;97921.47;5071874;28;20162;-77
2021/05/25 07:19:51;;;;;;;15.48;12.65;;;;;;;15.47;84.12;97921.28;5071531;28;20024;-74
2021/05/25 07:22:16;;;;;;;17.23;14.15;;;;;;;15.53;82.92;97932.97;5071939;28;20127;-77
2021/05/25 07:24:44;;;;;;;18.42;14.20;;;;;;;15.39;84.37;97938.63;5073047;28;20077;-75
2021/05/25 07:27:09;;;;;;;16.45;13.95;;;;;;;15.10;85.90;97930.22;5072891;28;20032;-75
2021/05/25 07:29:34;;;;;;;17.00;12.70;;;;;;;15.46;83.66;97935.38;5053650;28;20119;-75
2021/05/25 07:32:00;;;;;;;23.30;14.15;;;;;;;15.72;83.71;97944.44;5068706;28;20256;-75
2021/05/25 07:34:25;;;;;;;17.15;12.27;;;;;;;16.04;80.88;97946.56;5041542;28;20028;-75
2021/05/25 07:36:51;;;;;;;13.95;12.13;;;;;;;16.28;79.14;97945.19;5058958;28;20025;-76
2021/05/25 07:39:17;;;;;;;15.10;12.07;;;;;;;17.12;75.17;97943.00;5033389;28;20481;-76
2021/05/25 07:41:43;;;;;;;16.15;11.80;;;;;;;17.06;75.34;97949.91;5050954;28;20041;-74
2021/05/25 07:44:09;;;;;;;14.95;12.05;;;;;;;17.31;74.58;97952.78;5033352;28;20021;-74
2021/05/25 07:46:34;;;;;;;16.02;11.48;;;;;;;16.94;75.97;97949.84;5051752;28;20385;-75
2021/05/25 07:49:01;;;;;;;18.27;11.57;;;;;;;16.83;76.45;97942.25;5051880;28;20098;-74
2021/05/25 07:51:27;;;;;;;14.13;11.40;;;;;;;17.06;75.58;97947.13;5034073;28;20469;-76
2021/05/25 07:53:55;;;;;;;15.18;10.68;;;;;;;17.82;73.44;97945.94;5051520;28;20029;-75
2021/05/25 07:56:21;;;;;;;13.73;10.38;;;;;;;16.95;75.13;97954.19;5033226;28;20148;-74
2021/05/25 07:58:46;;;;;;;13.07;10.38;;;;;;;16.30;78.60;97956.69;5033613;28;20544;-75
2021/05/25 08:01:12;;;;;;;13.27;10.02;;;;;;;16.49;78.95;97959.84;5057409;28;20489;-74
2021/05/25 08:03:37;;;;;;;12.82;9.75;;;;;;;16.06;82.83;97960.06;5112240;28;20106;-74
2021/05/25 08:06:03;;;;;;;13.32;10.30;;;;;;;16.25;81.62;97965.16;5111216;28;20379;-76
2021/05/25 08:08:31;;;;;;;14.95;11.02;;;;;;;16.18;81.80;97967.63;5077301;28;20039;-75
2021/05/25 08:11:00;;;;;;;15.40;11.52;;;;;;;16.25;82.62;97965.16;5080369;28;20025;-75
2021/05/25 08:13:27;;;;;;;14.05;11.20;;;;;;;15.95;82.59;97970.63;5085512;28;20028;-75
2021/05/25 08:15:53;;;;;;;14.40;12.32;;;;;;;15.93;83.22;97964.66;5091446;28;20373;-78
2021/05/25 08:19:09;;;;;;;12.60;10.65;;;;;;;15.45;84.40;97977.84;5091436;28;20024;-74
2021/05/25 08:21:08;;;;;;;13.05;10.27;;;;;;;15.29;85.40;97973.97;5086649;28;20516;-74
2021/05/25 08:23:34;;;;;;;14.15;11.85;;;;;;;15.22;85.00;97974.50;5090793;28;20028;-74
2021/05/25 08:26:03;;;;;;;13.93;10.65;;;;;;;15.12;85.66;97971.25;5090699;28;20016;-74
2021/05/25 08:28:29;;;;;;;13.52;10.63;;;;;;;15.26;85.96;97977.38;5092505;28;20016;-74
2021/05/25 08:30:54;;;;;;;12.75;10.98;;;;;;;15.50;85.37;97973.03;5091727;28;20411;-74
2021/05/25 08:33:19;;;;;;;11.32;8.95;;;;;;;15.61;84.52;97970.72;5091053;28;20115;-74
2021/05/25 08:35:46;;;;;;;10.90;8.23;;;;;;;15.70;83.75;97973.47;5082663;28;20024;-74
2021/05/25 08:38:15;;;;;;;11.02;8.73;;;;;;;15.83;83.24;97969.69;5080063;28;20016;-73
2021/05/25 08:40:42;;;;;;;10.82;8.48;;;;;;;15.87;82.98;97971.50;5087042;28;20877;-73
2021/05/25 08:43:08;;;;;;;13.73;8.77;;;;;;;16.15;81.48;97973.81;5090057;28;20127;-76
2021/05/25 08:45:34;;;;;;;10.30;8.90;;;;;;;15.82;82.68;97963.38;5081970;28;20024;-74
2021/05/25 08:47:59;;;;;;;10.05;8.65;;;;;;;15.66;83.71;97970.56;5081242;28;20511;-73
2021/05/25 08:50:29;;;;;;;14.02;10.32;;;;;;;16.04;82.57;97985.22;5071244;28;20378;-74
2021/05/25 08:52:59;;;;;;;15.02;8.77;;;;;;;16.07;83.35;97989.25;5070534;28;20127;-74
2021/05/25 08:55:24;;;;;;;9.35;8.35;;;;;;;16.08;82.87;97988.94;5071566;28;20032;-75
2021/05/25 08:57:50;;;;;;;11.27;7.78;;;;;;;16.27;82.52;97979.44;5070210;28;20024;-74
2021/05/25 09:00:16;;;;;;;7.43;6.60;;;;;;;16.25;82.99;97985.31;5069503;28;20467;-73
2021/05/25 09:02:42;;;;;;;11.25;7.03;;;;;;;16.42;83.29;97987.16;5071096;28;20062;-73
2021/05/25 09:05:07;;;;;;;8.43;5.85;;;;;;;16.36;86.10;97994.00;5071072;28;20028;-75
2021/05/25 09:07:39;;;;;;;9.65;5.25;;;;;;;16.39;87.56;97991.41;5071288;28;20070;-74
2021/05/25 09:10:07;;;;;;;5.45;4.70;;;;;;;16.15;86.82;97987.63;5071880;28;20024;-74
2021/05/25 09:12:36;;;;;;;5.30;4.57;;;;;;;15.96;87.09;97982.47;5077386;28;20056;-74
2021/05/25 09:15:02;;;;;;;7.18;4.97;;;;;;;15.91;86.84;97994.50;5080367;28;20028;-74
2021/05/25 09:17:27;;;;;;;6.93;3.88;;;;;;;16.20;86.09;97990.19;5069713;28;20393;-74
2021/05/25 09:19:56;;;;;;;5.28;4.55;;;;;;;16.52;86.80;97995.88;5073377;28;20028;-73
2021/05/25 09:22:33;;;;;;;5.82;4.40;;;;;;;16.61;87.33;97998.63;5081262;28;20400;-73
2021/05/25 09:25:22;;;;;;;5.13;3.58;;;;;;;16.49;86.40;97998.50;5082483;28;20063;-74
2021/05/25 09:28:04;;;;;;;5.88;3.90;;;;;;;16.56;85.42;97998.81;5089377;28;20024;-73
2021/05/25 09:30:31;;;;;;;5.70;4.40;;;;;;;16.50;84.60;97997.38;5090120;28;20063;-75
2021/05/25 09:33:06;;;;;;;4.43;3.60;;;;;;;16.44;85.49;97998.69;5090302;28;20032;-75
2021/05/25 09:35:34;;;;;;;4.30;3.47;;;;;;;16.45;85.89;97992.00;5091252;28;20055;-74
2021/05/25 09:38:14;;;;;;;6.63;3.75;;;;;;;16.36;85.93;98003.09;5091045;28;20046;-74
2021/05/25 09:40:43;;;;;;;2.88;2.60;;;;;;;15.92;87.17;97996.13;5090512;28;20122;-74
2021/05/25 09:43:13;;;;;;;4.68;3.80;;;;;;;15.89;88.98;97998.72;5091055;28;20032;-75
2021/05/25 09:46:10;;;;;;;4.93;4.05;;;;;;;15.85;89.26;98006.84;5090372;28;20032;-75
2021/05/25 09:48:42;;;;;;;3.80;2.97;;;;;;;15.65;87.84;98003.97;5078368;28;20423;-74
2021/05/25 09:51:24;;;;;;;3.42;3.03;;;;;;;15.63;89.17;98004.28;5070864;28;20107;-74
2021/05/25 09:53:50;;;;;;;6.82;3.22;;;;;;;15.65;89.15;97996.53;5078312;28;20028;-73
2021/05/25 09:56:21;;;;;;;4.72;3.03;;;;;;;15.65;88.39;97996.53;5079102;28;20487;-73
2021/05/25 09:58:47;;;;;;;4.65;2.70;;;;;;;15.63;87.94;98003.50;5088105;28;20035;-75
2021/05/25 10:01:12;;;;;;;4.28;3.13;;;;;;;15.67;88.11;98008.03;5089459;28;20052;-75
2021/05/25 10:03:56;;;;;;;3.08;2.35;;;;;;;15.77;83.92;98004.94;5084586;28;20099;-74
2021/05/25 10:06:21;;;;;;;3.45;2.88;;;;;;;16.16;85.83;98009.38;5080439;28;20032;-77
2021/05/25 10:08:49;;;;;;;4.63;2.40;;;;;;;16.53;84.11;97999.47;5078672;28;20020;-75
2021/05/25 10:11:19;;;;;;;3.58;2.60;;;;;;;17.24;80.41;98007.81;5079086;28;20028;-76
2021/05/25 10:13:45;;;;;;;8.30;2.55;;;;;;;17.00;80.49;98003.75;5080391;28;20020;-80
2021/05/25 10:16:16;;;;;;;3.55;1.67;;;;;;;17.41;78.43;98004.91;5077425;28;20016;-78
2021/05/25 10:21:11;;;;;;;4.32;0.98;;;;;;;17.14;75.38;98018.13;5078592;28;20027;-76
2021/05/25 10:23:39;;;;;;;1.58;1.20;;;;;;;16.87;76.74;98010.34;5079065;28;20024;-77
2021/05/25 10:26:08;;;;;;;3.20;1.92;;;;;;;16.82;76.82;98005.00;5080604;28;20040;-81
2021/05/25 10:28:38;;;;;;;1.95;1.42;;;;;;;16.97;76.83;98009.97;5080405;28;20103;-76
2021/05/25 10:31:03;;;;;;;1.63;1.50;;;;;;;17.09;76.68;98011.97;5078808;28;20457;-75
2021/05/25 10:33:30;;;;;;;2.20;1.77;;;;;;;17.23;76.95;98006.19;5084355;28;20032;-76
2021/05/25 10:36:04;;;;;;;4.57;1.70;;;;;;;17.24;76.15;98013.31;5086995;28;20031;-75
2021/05/25 10:38:53;;;;;;;1.98;1.50;;;;;;;17.29;77.44;98013.94;5080449;28;20372;-74
2021/05/25 10:41:25;;;;;;;2.95;1.30;;;;;;;17.58;76.31;98007.53;5083689;28;20036;-73
2021/05/25 10:43:50;;;;;;;1.38;1.27;;;;;;;17.82;72.35;98012.38;5080509;28;20495;-75
2021/05/25 10:46:22;;;;;;;2.08;1.13;;;;;;;17.84;73.02;98005.34;5072097;28;20032;-74
2021/05/25 10:51:45;;;;;;;0.98;0.52;;;;;;;17.35;74.47;98022.84;5082920;28;20357;-78
2021/05/25 10:54:35;;;;;;;0.85;0.50;;;;;;;16.87;75.61;98018.63;5081923;28;20489;-74
2021/05/25 10:57:47;;;;;;;1.20;1.00;;;;;;;16.46;78.72;98024.84;5083185;28;20043;-75
2021/05/25 11:00:21;;;;;;;0.60;0.60;;;;;;;16.43;81.07;98021.91;5079055;28;20076;-76
2021/05/25 11:03:06;;;;;;;2.17;0.88;;;;;;;16.17;82.62;98033.06;5061361;28;20024;-75
2021/05/25 11:05:35;;;;;;;1.10;0.85;;;;;;;15.95;84.05;98031.34;5064917;28;20035;-74
2021/05/25 11:08:10;;;;;;;1.13;1.02;;;;;;;15.99;84.70;98035.06;5060032;28;20020;-75
2021/05/25 11:10:45;;;;;;;2.00;1.90;;;;;;;15.91;85.72;98032.34;5047767;28;20550;-74
2021/05/25 11:13:16;;;;;;;0.70;0.70;;;;;;;15.62;87.70;98038.53;5072130;28;20036;-76
2021/05/25 11:16:14;;;;;;;1.02;0.93;;;;;;;15.65;87.86;98040.66;5072098;28;20093;-76
2021/05/25 11:18:52;;;;;;;1.10;1.00;;;;;;;15.74;87.00;98033.16;5073273;28;20060;-74
2021/05/25 11:27:32;;;;;;;0.50;0.50;;;;;;;16.08;83.91;98032.28;5072704;28;20020;-75
2021/05/25 11:30:04;;;;;;;0.95;0.52;;;;;;;15.96;84.28;98026.63;5071815;28;20025;-75
2021/05/25 11:32:38;;;;;;;1.08;0.75;;;;;;;16.01;85.70;98018.97;5072087;28;20061;-75
2021/05/25 11:35:21;;;;;;;1.38;1.00;;;;;;;16.01;85.52;98032.78;5072306;28;20043;-78
2021/05/25 11:37:51;;;;;;;1.55;1.10;;;;;;;16.45;86.74;98030.69;5056210;28;20119;-75